createdAt,value
2019-06-26T00:02:26.049Z,9.35
2019-06-26T00:04:56.645Z,8.38
2019-06-26T00:07:27.176Z,8.55
2019-06-26T00:09:57.754Z,8.18
2019-06-26T00:12:28.442Z,9.38
2019-06-26T00:15:00.013Z,10.18
2019-06-26T00:17:31.081Z,9.25
2019-06-26T00:20:01.664Z,9.05
2019-06-26T00:22:32.608Z,9.90
2019-06-26T00:25:03.607Z,9.48
2019-06-26T00:27:34.162Z,9.08
2019-06-26T00:30:05.308Z,9.78
2019-06-26T00:32:37.382Z,10.18
2019-06-26T00:35:08.448Z,10.18
2019-06-26T00:37:38.955Z,9.48
2019-06-26T00:40:09.585Z,9.03
2019-06-26T00:42:40.639Z,10.05
2019-06-26T00:45:11.282Z,9.58
2019-06-26T00:47:41.885Z,8.65
2019-06-26T00:50:13.971Z,8.80
2019-06-26T00:52:45.655Z,9.30
2019-06-26T00:55:16.945Z,10.00
2019-06-26T00:57:47.420Z,9.28
2019-06-26T01:00:18.847Z,10.10
2019-06-26T01:02:49.742Z,9.63
2019-06-26T01:05:21.340Z,9.48
2019-06-26T01:07:52.372Z,9.95
2019-06-26T01:10:23.501Z,9.33
2019-06-26T01:12:54.507Z,9.65
2019-06-26T01:15:27.029Z,9.78
2019-06-26T01:17:58.058Z,10.25
2019-06-26T01:20:28.617Z,8.80
2019-06-26T01:22:59.182Z,9.13
2019-06-26T01:25:29.741Z,10.72
2019-06-26T01:28:00.349Z,10.03
2019-06-26T01:30:30.969Z,11.18
2019-06-26T01:33:01.569Z,9.30
2019-06-26T01:35:32.589Z,10.20
2019-06-26T01:38:03.113Z,10.48
2019-06-26T01:40:35.094Z,9.70
2019-06-26T01:43:05.594Z,10.18
2019-06-26T01:45:36.170Z,10.18
2019-06-26T01:48:07.810Z,10.48
2019-06-26T01:50:38.862Z,9.63
2019-06-26T01:53:09.330Z,9.30
2019-06-26T01:55:40.859Z,9.48
2019-06-26T01:58:11.335Z,9.10
2019-06-26T02:00:41.867Z,9.50
2019-06-26T02:03:12.995Z,9.40
2019-06-26T02:05:43.916Z,8.50
2019-06-26T02:08:14.397Z,9.65
2019-06-26T02:10:44.972Z,8.85
2019-06-26T02:13:15.832Z,8.83
2019-06-26T02:15:46.321Z,8.10
2019-06-26T02:18:38.875Z,8.35
2019-06-26T02:21:09.841Z,8.53
2019-06-26T02:23:40.745Z,8.05
2019-06-26T02:26:11.394Z,9.05
2019-06-26T02:28:41.909Z,8.90
2019-06-26T02:31:12.621Z,8.33
2019-06-26T02:33:43.785Z,8.58
2019-06-26T02:36:14.335Z,9.40
2019-06-26T02:38:44.835Z,10.03
2019-06-26T02:41:16.932Z,9.13
2019-06-26T02:43:47.879Z,8.85
2019-06-26T02:46:18.410Z,9.00
2019-06-26T02:48:49.280Z,8.35
2019-06-26T02:51:19.742Z,8.67
2019-06-26T02:53:50.717Z,8.85
2019-06-26T02:56:21.745Z,9.70
2019-06-26T02:58:52.813Z,9.40
2019-06-26T03:01:23.377Z,9.60
2019-06-26T03:03:53.951Z,9.30
2019-06-26T03:06:24.498Z,9.40
2019-06-26T03:08:55.000Z,8.85
2019-06-26T03:11:25.568Z,8.73
2019-06-26T03:13:56.097Z,9.13
2019-06-26T03:16:26.548Z,9.28
2019-06-26T03:18:57.084Z,9.43
2019-06-26T03:21:27.625Z,8.78
2019-06-26T03:23:58.177Z,8.23
2019-06-26T03:26:30.188Z,8.35
2019-06-26T03:29:02.644Z,8.55
2019-06-26T03:31:33.219Z,8.43
2019-06-26T03:34:03.716Z,8.85
2019-06-26T03:36:34.303Z,8.70
2019-06-26T03:39:07.118Z,8.05
2019-06-26T03:41:37.662Z,8.67
2019-06-26T03:44:08.461Z,8.58
2019-06-26T03:46:38.944Z,8.13
2019-06-26T03:49:09.485Z,7.80
2019-06-26T03:51:40.198Z,8.20
2019-06-26T03:54:10.837Z,7.80
2019-06-26T03:56:41.739Z,7.97
2019-06-26T03:59:12.269Z,8.75
2019-06-26T04:01:43.216Z,7.83
2019-06-26T04:04:13.728Z,7.12
2019-06-26T04:06:44.579Z,8.48
2019-06-26T04:09:15.555Z,7.45
2019-06-26T04:11:46.455Z,8.73
2019-06-26T04:14:17.079Z,8.35
2019-06-26T04:16:47.620Z,8.48
2019-06-26T04:19:20.884Z,10.03
2019-06-26T04:21:51.354Z,9.38
2019-06-26T04:24:21.876Z,9.48
2019-06-26T04:26:52.797Z,9.05
2019-06-26T04:29:23.764Z,8.63
2019-06-26T04:31:54.257Z,8.90
2019-06-26T04:34:25.130Z,9.18
2019-06-26T04:36:55.599Z,8.80
2019-06-26T04:39:26.120Z,8.45
2019-06-26T04:41:56.596Z,8.80
2019-06-26T04:44:27.100Z,7.97
2019-06-26T04:46:57.592Z,7.65
2019-06-26T04:49:28.135Z,7.90
2019-06-26T04:51:58.607Z,8.15
2019-06-26T04:54:29.206Z,8.40
2019-06-26T04:56:59.784Z,7.10
2019-06-26T04:59:30.287Z,7.45
2019-06-26T05:02:01.362Z,7.10
2019-06-26T05:04:32.287Z,6.90
2019-06-26T05:07:07.836Z,6.20
2019-06-26T05:09:38.711Z,5.97
2019-06-26T05:12:13.425Z,7.72
2019-06-26T05:14:44.066Z,5.97
2019-06-26T05:17:14.576Z,6.15
2019-06-26T05:19:45.519Z,6.72
2019-06-26T05:22:16.420Z,6.60
2019-06-26T05:24:46.932Z,6.20
2019-06-26T05:27:17.307Z,7.65
2019-06-26T05:29:48.183Z,6.92
2019-06-26T05:32:18.547Z,7.87
2019-06-26T05:34:48.943Z,6.45
2019-06-26T05:37:19.317Z,6.37
2019-06-26T05:39:50.264Z,7.08
2019-06-26T05:42:21.180Z,6.40
2019-06-26T05:44:51.955Z,6.10
2019-06-26T05:47:22.349Z,7.67
2019-06-26T05:49:52.699Z,6.70
2019-06-26T05:52:23.104Z,5.85
2019-06-26T05:54:54.105Z,6.37
2019-06-26T05:57:25.785Z,5.60
2019-06-26T05:59:56.336Z,5.15
2019-06-26T06:02:26.794Z,6.10
2019-06-26T06:04:57.304Z,6.80
2019-06-26T06:07:27.733Z,6.80
2019-06-26T06:09:59.227Z,5.58
2019-06-26T06:12:29.784Z,6.42
2019-06-26T06:15:00.350Z,6.20
2019-06-26T06:17:31.288Z,6.60
2019-06-26T06:20:02.071Z,5.97
2019-06-26T06:22:33.764Z,6.42
2019-06-26T06:25:05.563Z,6.00
2019-06-26T06:27:36.304Z,5.85
2019-06-26T06:30:07.255Z,5.50
2019-06-26T06:32:38.335Z,4.92
2019-06-26T06:35:08.971Z,6.08
2019-06-26T06:37:39.443Z,5.75
2019-06-26T06:40:10.644Z,6.67
2019-06-26T06:42:41.090Z,6.17
2019-06-26T06:45:11.920Z,6.35
2019-06-26T06:47:42.811Z,6.83
2019-06-26T06:50:13.404Z,6.97
2019-06-26T06:52:43.882Z,6.45
2019-06-26T06:55:15.019Z,6.58
2019-06-26T06:57:45.509Z,6.37
2019-06-26T07:00:16.334Z,7.03
2019-06-26T07:02:47.423Z,7.37
2019-06-26T07:05:18.427Z,7.30
2019-06-26T07:07:49.623Z,7.03
2019-06-26T07:10:20.517Z,7.05
2019-06-26T07:12:51.185Z,6.55
2019-06-26T07:15:23.500Z,5.90
2019-06-26T07:17:54.663Z,5.87
2019-06-26T07:20:25.711Z,6.55
2019-06-26T07:22:56.576Z,6.87
2019-06-26T07:25:28.061Z,6.87
2019-06-26T07:28:01.732Z,6.80
2019-06-26T07:30:31.260Z,7.90
2019-06-26T07:33:02.244Z,6.47
2019-06-26T07:35:32.759Z,7.20
2019-06-26T07:38:03.356Z,6.65
2019-06-26T07:40:33.907Z,7.15
2019-06-26T07:43:06.221Z,7.17
2019-06-26T07:45:38.980Z,7.37
2019-06-26T07:48:09.954Z,6.65
2019-06-26T07:50:40.499Z,6.35
2019-06-26T07:53:12.365Z,5.72
2019-06-26T07:55:43.897Z,6.72
2019-06-26T07:58:14.427Z,6.37
2019-06-26T08:00:45.504Z,5.60
2019-06-26T08:03:18.015Z,5.90
2019-06-26T08:05:48.483Z,5.87
2019-06-26T08:08:18.948Z,6.28
2019-06-26T08:10:49.545Z,5.80
2019-06-26T08:13:20.573Z,5.67
2019-06-26T08:15:51.066Z,5.62
2019-06-26T08:18:22.009Z,6.92
2019-06-26T08:21:10.911Z,4.97
2019-06-26T08:23:24.619Z,6.40
2019-06-26T08:25:55.500Z,4.95
2019-06-26T08:28:25.985Z,5.75
2019-06-26T08:30:56.532Z,6.62
2019-06-26T08:33:27.416Z,5.33
2019-06-26T08:35:57.975Z,6.12
2019-06-26T08:38:28.432Z,6.80
2019-06-26T08:40:58.877Z,5.33
2019-06-26T08:43:31.377Z,6.58
2019-06-26T08:46:01.593Z,5.40
2019-06-26T08:48:39.565Z,6.10
2019-06-26T08:51:05.255Z,6.33
2019-06-26T08:53:36.312Z,5.67
2019-06-26T08:56:07.189Z,6.22
2019-06-26T08:58:37.665Z,6.20
2019-06-26T09:01:08.157Z,6.08
2019-06-26T09:03:41.869Z,5.97
2019-06-26T09:06:11.201Z,5.72
2019-06-26T09:08:42.132Z,6.58
2019-06-26T09:11:13.094Z,5.75
2019-06-26T09:13:43.591Z,6.20
2019-06-26T09:16:14.160Z,7.15
2019-06-26T09:18:45.000Z,6.90
2019-06-26T09:21:15.527Z,6.65
2019-06-26T09:23:47.095Z,6.80
2019-06-26T09:26:17.559Z,6.22
2019-06-26T09:28:48.404Z,6.83
2019-06-26T09:31:18.857Z,7.20
2019-06-26T09:33:49.381Z,6.80
2019-06-26T09:36:19.932Z,6.35
2019-06-26T09:38:50.809Z,6.17
2019-06-26T09:41:21.280Z,6.33
2019-06-26T09:43:52.583Z,5.40
2019-06-26T09:46:23.221Z,6.45
2019-06-26T09:48:53.801Z,6.50
2019-06-26T09:51:24.693Z,5.62
2019-06-26T09:53:55.250Z,5.92
2019-06-26T09:56:26.127Z,6.33
2019-06-26T09:58:57.719Z,7.25
2019-06-26T10:01:28.594Z,6.22
2019-06-26T10:03:59.195Z,6.12
2019-06-26T10:06:30.641Z,6.40
2019-06-26T10:09:01.604Z,6.58
2019-06-26T10:11:33.676Z,5.47
2019-06-26T10:14:04.222Z,5.33
2019-06-26T10:16:35.466Z,5.55
2019-06-26T10:19:10.523Z,5.10
2019-06-26T10:21:38.111Z,5.83
2019-06-26T10:24:09.062Z,5.72
2019-06-26T10:26:40.125Z,5.45
2019-06-26T10:29:10.680Z,5.20
2019-06-26T10:31:41.180Z,5.58
2019-06-26T10:34:11.673Z,6.12
2019-06-26T10:36:42.162Z,6.70
2019-06-26T10:39:13.119Z,6.25
2019-06-26T10:41:44.165Z,6.33
2019-06-26T10:44:15.261Z,5.80
2019-06-26T10:46:46.180Z,5.05
2019-06-26T10:49:26.359Z,5.53
2019-06-26T10:51:49.295Z,5.33
2019-06-26T10:54:20.243Z,6.15
2019-06-26T10:56:52.180Z,5.90
2019-06-26T10:59:22.733Z,6.03
2019-06-26T11:01:53.738Z,6.78
2019-06-26T11:04:25.613Z,6.92
2019-06-26T11:06:56.542Z,6.47
2019-06-26T11:09:27.467Z,6.72
2019-06-26T11:11:57.928Z,7.15
2019-06-26T11:14:29.148Z,6.87
2019-06-26T11:16:59.608Z,7.20
2019-06-26T11:19:43.325Z,7.12
2019-06-26T11:22:02.223Z,7.40
2019-06-26T11:24:33.594Z,6.65
2019-06-26T11:27:04.151Z,7.25
2019-06-26T11:29:34.685Z,7.15
2019-06-26T11:32:08.402Z,6.20
2019-06-26T11:34:37.685Z,8.03
2019-06-26T11:37:08.596Z,6.65
2019-06-26T11:39:39.103Z,6.72
2019-06-26T11:42:10.870Z,6.70
2019-06-26T11:44:41.408Z,6.80
2019-06-26T11:47:12.931Z,7.15
2019-06-26T11:49:58.963Z,6.50
2019-06-26T11:52:17.047Z,6.65
2019-06-26T11:55:01.313Z,7.28
2019-06-26T11:57:20.194Z,6.92
2019-06-26T11:59:52.465Z,7.22
2019-06-26T12:02:23.508Z,6.90
2019-06-26T12:04:54.021Z,7.35
2019-06-26T12:07:24.904Z,8.15
2019-06-26T12:09:55.909Z,8.00
2019-06-26T12:12:26.488Z,7.22
2019-06-26T12:14:56.993Z,7.30
2019-06-26T12:17:27.934Z,7.03
2019-06-26T12:19:58.500Z,8.13
2019-06-26T12:22:28.973Z,7.55
2019-06-26T12:24:59.524Z,7.42
2019-06-26T12:27:29.885Z,7.35
2019-06-26T12:30:00.325Z,7.10
2019-06-26T12:32:30.801Z,7.00
2019-06-26T12:35:01.792Z,6.58
2019-06-26T12:37:37.674Z,6.87
2019-06-26T12:40:05.022Z,7.40
2019-06-26T12:42:35.512Z,7.17
2019-06-26T12:45:06.965Z,6.58
2019-06-26T12:47:38.435Z,7.60
2019-06-26T12:50:11.632Z,7.50
2019-06-26T12:52:42.621Z,7.67
2019-06-26T12:55:14.933Z,7.00
2019-06-26T12:57:45.844Z,6.78
2019-06-26T13:00:17.076Z,7.28
2019-06-26T13:02:47.611Z,7.30
2019-06-26T13:05:18.817Z,7.17
2019-06-26T13:07:49.854Z,7.00
2019-06-26T13:10:45.009Z,6.35
2019-06-26T13:13:02.449Z,7.15
2019-06-26T13:15:32.920Z,8.08
2019-06-26T13:18:03.583Z,7.47
2019-06-26T13:20:51.197Z,7.00
2019-06-26T13:23:07.257Z,7.15
2019-06-26T13:25:38.236Z,7.40
2019-06-26T13:28:14.128Z,7.22
2019-06-26T13:30:45.298Z,6.35
2019-06-26T13:33:15.768Z,6.72
2019-06-26T13:35:50.961Z,7.62
2019-06-26T13:38:21.448Z,7.20
2019-06-26T13:40:52.403Z,8.28
2019-06-26T13:43:23.356Z,7.22
2019-06-26T13:45:54.681Z,7.05
2019-06-26T13:48:38.463Z,6.72
2019-06-26T13:51:10.182Z,7.50
2019-06-26T13:53:41.395Z,6.47
2019-06-26T13:56:12.944Z,6.72
2019-06-26T13:58:43.623Z,6.50
2019-06-26T14:01:14.762Z,7.92
2019-06-26T14:03:45.697Z,7.78
2019-06-26T14:06:17.236Z,6.92
2019-06-26T14:08:47.777Z,7.08
2019-06-26T14:11:18.427Z,7.67
2019-06-26T14:13:49.948Z,6.85
2019-06-26T14:16:20.472Z,6.58
2019-06-26T14:18:51.065Z,6.55
2019-06-26T14:21:26.127Z,7.03
2019-06-26T14:23:53.418Z,7.42
2019-06-26T14:26:24.304Z,8.05
2019-06-26T14:28:55.360Z,7.10
2019-06-26T14:31:25.861Z,7.03
2019-06-26T14:33:56.376Z,6.72
2019-06-26T14:36:26.979Z,6.90
2019-06-26T14:38:57.959Z,6.45
2019-06-26T14:41:29.466Z,6.25
2019-06-26T14:43:59.968Z,6.60
2019-06-26T14:46:30.927Z,6.53
2019-06-26T14:49:01.497Z,6.40
2019-06-26T14:51:43.414Z,6.50
2019-06-26T14:54:04.584Z,6.67
2019-06-26T14:56:36.104Z,6.17
2019-06-26T14:59:07.077Z,6.50
2019-06-26T15:01:37.887Z,6.45
2019-06-26T15:04:08.277Z,6.97
2019-06-26T15:06:38.676Z,6.37
2019-06-26T15:09:09.163Z,6.78
2019-06-26T15:11:42.995Z,6.47
2019-06-26T15:14:13.403Z,6.28
2019-06-26T15:16:44.409Z,6.62
2019-06-26T15:19:15.183Z,6.42
2019-06-26T15:21:57.909Z,7.08
2019-06-26T15:24:18.202Z,5.87
2019-06-26T15:26:48.784Z,6.65
2019-06-26T15:29:19.724Z,6.08
2019-06-26T15:31:50.715Z,6.00
2019-06-26T15:34:22.242Z,6.37
2019-06-26T15:36:53.003Z,6.30
2019-06-26T15:39:23.944Z,6.90
2019-06-26T15:41:54.323Z,6.62
2019-06-26T15:44:25.178Z,5.83
2019-06-26T15:46:56.376Z,6.75
2019-06-26T15:49:26.719Z,6.62
2019-06-26T15:52:13.758Z,6.58
2019-06-26T15:54:29.828Z,6.35
2019-06-26T15:57:00.465Z,6.47
2019-06-26T15:59:31.800Z,5.50
2019-06-26T16:02:02.728Z,6.72
2019-06-26T16:04:35.306Z,6.72
2019-06-26T16:07:07.192Z,6.45
2019-06-26T16:09:37.996Z,6.08
2019-06-26T16:12:08.437Z,6.45
2019-06-26T16:14:38.904Z,5.40
2019-06-26T16:17:16.794Z,5.00
2019-06-26T16:19:47.539Z,5.40
2019-06-26T16:22:31.791Z,6.22
2019-06-26T16:24:51.971Z,6.30
2019-06-26T16:27:22.955Z,6.80
2019-06-26T16:29:55.612Z,6.67
2019-06-26T16:32:26.927Z,6.53
2019-06-26T16:34:57.684Z,6.78
2019-06-26T16:37:28.058Z,6.67
2019-06-26T16:39:58.627Z,6.67
2019-06-26T16:42:29.043Z,6.60
2019-06-26T16:44:59.512Z,6.58
2019-06-26T16:47:31.739Z,6.47
2019-06-26T16:50:02.266Z,6.28
2019-06-26T16:52:47.784Z,6.62
2019-06-26T16:55:10.028Z,5.53
2019-06-26T16:57:40.470Z,6.35
2019-06-26T17:00:19.087Z,6.25
2019-06-26T17:03:02.433Z,6.05
2019-06-26T17:05:33.252Z,6.50
2019-06-26T17:08:04.091Z,5.78
2019-06-26T17:10:37.788Z,6.47
2019-06-26T17:13:11.355Z,6.35
2019-06-26T17:15:42.250Z,6.72
2019-06-26T17:18:21.807Z,5.65
2019-06-26T17:20:52.795Z,6.05
2019-06-26T17:23:24.382Z,6.72
2019-06-26T17:25:55.604Z,6.25
2019-06-26T17:28:26.428Z,6.62
2019-06-26T17:30:57.491Z,6.50
2019-06-26T17:33:28.377Z,5.60
2019-06-26T17:35:59.066Z,5.80
2019-06-26T17:38:29.543Z,5.75
2019-06-26T17:41:01.192Z,6.08
2019-06-26T17:43:31.818Z,5.28
2019-06-26T17:46:03.212Z,5.50
2019-06-26T17:48:34.208Z,4.75
2019-06-26T17:51:04.868Z,4.90
2019-06-26T17:53:35.439Z,4.92
2019-06-26T17:56:05.905Z,5.00
2019-06-26T17:58:36.631Z,5.05
2019-06-26T18:01:07.759Z,4.62
2019-06-26T18:03:38.645Z,5.00
2019-06-26T18:06:09.167Z,4.10
2019-06-26T18:08:42.799Z,4.92
2019-06-26T18:11:14.812Z,5.35
2019-06-26T18:13:48.193Z,5.50
2019-06-26T18:16:21.089Z,6.25
2019-06-26T18:18:52.099Z,5.58
2019-06-26T18:21:23.405Z,5.87
2019-06-26T18:23:54.001Z,5.50
2019-06-26T18:26:25.875Z,5.17
2019-06-26T18:28:56.692Z,4.55
2019-06-26T18:31:30.543Z,4.92
2019-06-26T18:34:02.552Z,5.20
2019-06-26T18:36:33.810Z,5.95
2019-06-26T18:39:05.967Z,5.75
2019-06-26T18:41:36.907Z,5.97
2019-06-26T18:44:07.328Z,6.12
2019-06-26T18:46:38.114Z,7.12
2019-06-26T18:49:09.619Z,6.95
2019-06-26T18:51:40.877Z,6.17
2019-06-26T18:54:11.503Z,6.72
2019-06-26T18:56:50.225Z,7.22
2019-06-26T18:59:28.325Z,7.90
2019-06-26T19:01:58.776Z,6.95
2019-06-26T19:04:35.136Z,7.30
2019-06-26T19:07:07.394Z,7.37
2019-06-26T19:09:38.299Z,7.25
2019-06-26T19:12:09.323Z,7.67
2019-06-26T19:14:46.074Z,7.85
2019-06-26T19:17:19.574Z,7.20
2019-06-26T19:19:52.924Z,7.58
2019-06-26T19:22:25.781Z,7.95
2019-06-26T19:25:00.696Z,8.88
2019-06-26T19:27:31.243Z,8.03
2019-06-26T19:30:02.950Z,9.23
2019-06-26T19:32:37.317Z,7.87
2019-06-26T19:35:18.117Z,8.48
2019-06-26T19:37:39.703Z,8.15
2019-06-26T19:40:12.027Z,9.03
2019-06-26T19:42:42.995Z,8.30
2019-06-26T19:45:15.716Z,9.75
2019-06-26T19:47:46.116Z,8.68
2019-06-26T19:50:17.016Z,9.40
2019-06-26T19:52:49.480Z,9.30
2019-06-26T19:55:22.473Z,8.90
2019-06-26T19:57:59.429Z,9.15
2019-06-26T20:00:31.000Z,9.85
2019-06-26T20:03:03.218Z,9.38
2019-06-26T20:05:53.598Z,10.10
2019-06-26T20:08:25.111Z,9.88
2019-06-26T20:10:56.101Z,9.58
2019-06-26T20:13:27.547Z,9.68
2019-06-26T20:15:58.403Z,9.08
2019-06-26T20:18:30.096Z,9.58
2019-06-26T20:21:02.743Z,9.48
2019-06-26T20:23:33.762Z,10.25
2019-06-26T20:26:08.698Z,10.00
2019-06-26T20:28:40.772Z,8.75
2019-06-26T20:31:19.018Z,9.53
2019-06-26T20:33:49.940Z,9.43
2019-06-26T20:36:21.121Z,9.75
2019-06-26T20:38:52.368Z,8.65
2019-06-26T20:41:23.161Z,8.45
2019-06-26T20:43:54.016Z,8.20
2019-06-26T20:46:25.087Z,7.92
2019-06-26T20:48:55.625Z,8.10
2019-06-26T20:51:26.625Z,8.25
2019-06-26T20:53:57.284Z,9.00
2019-06-26T20:56:28.363Z,8.45
2019-06-26T20:58:59.283Z,8.48
2019-06-26T21:01:30.224Z,8.00
2019-06-26T21:04:01.549Z,8.93
2019-06-26T21:06:33.000Z,8.65
2019-06-26T21:09:04.639Z,7.97
2019-06-26T21:11:36.215Z,8.68
2019-06-26T21:14:06.777Z,8.65
2019-06-26T21:16:37.666Z,7.33
2019-06-26T21:19:08.582Z,7.25
2019-06-26T21:21:39.438Z,9.23
2019-06-26T21:24:10.495Z,9.20
2019-06-26T21:26:41.631Z,9.70
2019-06-26T21:29:12.171Z,9.13
2019-06-26T21:31:42.716Z,9.35
2019-06-26T21:34:13.240Z,9.35
2019-06-26T21:36:43.728Z,10.05
2019-06-26T21:39:14.214Z,9.08
2019-06-26T21:41:44.688Z,9.73
2019-06-26T21:44:15.139Z,10.03
2019-06-26T21:46:47.005Z,9.23
2019-06-26T21:49:17.462Z,10.35
2019-06-26T21:51:48.322Z,10.53
2019-06-26T21:54:18.861Z,8.95
2019-06-26T21:57:09.439Z,8.93
2019-06-26T21:59:58.549Z,10.38
2019-06-26T22:02:48.399Z,10.08
2019-06-26T22:05:23.504Z,11.93
2019-06-26T22:08:02.064Z,10.70
2019-06-26T22:10:43.213Z,11.48
2019-06-26T22:13:14.795Z,10.78
2019-06-26T22:15:45.849Z,10.63
2019-06-26T22:18:16.420Z,10.85
2019-06-26T22:20:48.692Z,9.65
2019-06-26T22:23:19.648Z,10.13
2019-06-26T22:25:51.561Z,10.25
2019-06-26T22:28:23.247Z,11.57
2019-06-26T22:30:54.169Z,10.45
2019-06-26T22:33:25.440Z,9.70
2019-06-26T22:35:56.900Z,9.23
2019-06-26T22:38:27.379Z,10.00
2019-06-26T22:40:58.324Z,9.95
2019-06-26T22:43:29.268Z,10.00
2019-06-26T22:46:01.934Z,11.63
2019-06-26T22:48:32.908Z,10.65
2019-06-26T22:51:03.438Z,11.63
2019-06-26T22:53:34.753Z,10.78
2019-06-26T22:56:07.944Z,12.23
2019-06-26T22:58:37.945Z,10.63
2019-06-26T23:01:08.893Z,11.38
2019-06-26T23:03:39.473Z,11.45
2019-06-26T23:06:09.970Z,11.08
2019-06-26T23:08:40.958Z,10.55
2019-06-26T23:11:13.593Z,10.85
2019-06-26T23:13:44.163Z,10.35
2019-06-26T23:16:14.962Z,10.70
2019-06-26T23:18:45.456Z,11.48
2019-06-26T23:21:15.977Z,11.43
2019-06-26T23:23:46.983Z,10.32
2019-06-26T23:26:23.955Z,9.85
2019-06-26T23:28:50.648Z,10.80
2019-06-26T23:31:21.140Z,11.30
2019-06-26T23:33:51.645Z,11.40
2019-06-26T23:36:22.138Z,12.30
2019-06-26T23:38:53.470Z,12.25
2019-06-26T23:41:24.019Z,12.23
2019-06-26T23:43:54.536Z,11.25
2019-06-26T23:46:25.081Z,11.00
2019-06-26T23:48:55.577Z,12.20
2019-06-26T23:51:26.119Z,10.30
2019-06-26T23:53:56.708Z,11.15
2019-06-26T23:56:39.873Z,10.80
2019-06-26T23:58:59.241Z,11.03
